Time;durP1;ratioP1;P1;durP2;ratioP2;P2;SDS_P1;SDS_P2;PMS_P1;PMS_P2;Temp;Humidity;BMP_temperature;BMP_pressure;BME280_temperature;BME280_humidity;BME280_pressure;Samples;Min_cycle;Max_cycle;Signal;HPM_P1;HPM_P2
2021/12/16 00:06:45;;;;;;;4.47;3.90;;;19.50;71.80;;;;;;5137779;27;20570;-20
2021/12/16 00:08:41;;;;;;;3.83;3.47;;;19.50;71.90;;;;;;5134106;27;20203;-22
2021/12/16 00:11:22;;;;;;;4.53;4.10;;;19.40;72.20;;;;;;5117675;28;20481;-23
2021/12/16 00:33:41;;;;;;;4.30;3.90;;;19.20;74.30;;;;;;5135131;27;20198;-20
2021/12/16 00:35:57;;;;;;;5.93;3.93;;;19.20;74.50;;;;;;5131841;27;20217;-21
2021/12/16 00:38:22;;;;;;;4.23;3.43;;;19.20;74.70;;;;;;5118633;27;20211;-22
2021/12/16 00:40:49;;;;;;;3.73;3.43;;;19.20;74.90;;;;;;5119214;27;20239;-24
2021/12/16 00:43:27;;;;;;;4.77;3.90;;;19.20;74.90;;;;;;5136460;27;20195;-21
2021/12/16 00:48:49;;;;;;;4.60;3.30;;;19.10;75.30;;;;;;5137105;27;20204;-21
2021/12/16 00:56:32;;;;;;;4.63;3.73;;;19.10;75.80;;;;;;5135675;27;20440;-22
2021/12/16 00:59:00;;;;;;;4.43;3.90;;;19.10;76.00;;;;;;5116829;28;20618;-19
2021/12/16 01:07:11;;;;;;;4.50;3.53;;;19.00;76.20;;;;;;5135474;27;20204;-22
2021/12/16 01:33:30;;;;;;;4.27;3.60;;;19.00;76.30;;;;;;5134272;27;20486;-22
2021/12/16 01:45:27;;;;;;;4.57;4.17;;;18.80;77.60;;;;;;5133988;27;20219;-20
2021/12/16 01:50:39;;;;;;;4.23;3.83;;;18.80;78.00;;;;;;5135959;27;20193;-23
2021/12/16 01:56:04;;;;;;;4.37;3.97;;;18.80;78.00;;;;;;5118293;28;20204;-23
2021/12/16 01:58:32;;;;;;;4.73;3.90;;;18.80;78.20;;;;;;5135780;27;20692;-21
2021/12/16 02:01:19;;;;;;;4.83;4.30;;;18.70;78.10;;;;;;5134674;27;20213;-21
2021/12/16 02:04:01;;;;;;;4.30;3.90;;;18.70;78.40;;;;;;5115778;27;20197;-27
2021/12/16 02:06:46;;;;;;;4.87;3.93;;;18.70;78.30;;;;;;5116250;27;20169;-22
2021/12/16 02:09:42;;;;;;;4.20;3.80;;;18.70;78.50;;;;;;5117141;28;20188;-23
2021/12/16 02:12:33;;;;;;;4.30;3.90;;;18.70;78.60;;;;;;5117250;27;20214;-24
2021/12/16 02:34:32;;;;;;;4.17;3.77;;;18.60;79.10;;;;;;5129512;27;20215;-23
2021/12/16 02:36:58;;;;;;;4.20;3.77;;;18.60;79.20;;;;;;5117309;28;20203;-24
2021/12/16 02:39:34;;;;;;;4.37;3.97;;;18.60;79.20;;;;;;5116838;28;20193;-23
2021/12/16 02:42:13;;;;;;;4.43;3.93;;;18.60;79.30;;;;;;5135444;27;20636;-20
2021/12/16 02:49:53;;;;;;;4.50;4.10;;;18.60;79.50;;;;;;5132915;27;20227;-25
2021/12/16 02:52:22;;;;;;;4.10;3.80;;;18.50;79.40;;;;;;5114971;27;20239;-22
2021/12/16 02:54:48;;;;;;;5.03;4.50;;;18.50;79.50;;;;;;5135018;27;20193;-23
2021/12/16 02:57:15;;;;;;;4.40;4.00;;;18.50;79.50;;;;;;5135009;27;20272;-20
2021/12/16 02:59:42;;;;;;;5.17;4.13;;;18.50;79.60;;;;;;5134996;27;20296;-20
2021/12/16 03:02:14;;;;;;;4.60;4.10;;;18.50;79.70;;;;;;5116021;28;20224;-21
2021/12/16 03:04:42;;;;;;;4.17;3.80;;;18.50;79.60;;;;;;5134430;27;20201;-22
2021/12/16 03:07:10;;;;;;;4.33;3.93;;;18.50;79.70;;;;;;5134365;27;20401;-24
2021/12/16 03:15:10;;;;;;;4.70;4.20;;;18.50;79.90;;;;;;5104070;27;20441;-22
2021/12/16 03:17:53;;;;;;;4.60;4.20;;;18.50;79.90;;;;;;5134208;27;20766;-24
2021/12/16 03:20:34;;;;;;;4.70;4.20;;;18.50;79.90;;;;;;5134554;27;20250;-21
2021/12/16 03:25:56;;;;;;;4.57;4.17;;;18.50;80.10;;;;;;5134635;27;20189;-20
2021/12/16 03:38:28;;;;;;;4.30;3.90;;;18.40;80.20;;;;;;5133401;27;20211;-21
2021/12/16 03:40:55;;;;;;;4.80;4.30;;;18.40;80.30;;;;;;5134418;27;20208;-21
2021/12/16 03:43:21;;;;;;;4.43;4.03;;;18.40;80.40;;;;;;5134816;27;20200;-22
2021/12/16 03:49:00;;;;;;;4.53;4.13;;;18.40;80.60;;;;;;5129805;27;20189;-22
2021/12/16 03:51:34;;;;;;;4.50;4.10;;;18.40;80.80;;;;;;5116364;28;20257;-21
2021/12/16 03:54:07;;;;;;;5.43;4.90;;;18.30;80.80;;;;;;5133258;27;20354;-22
2021/12/16 03:56:33;;;;;;;4.83;4.37;;;18.30;80.80;;;;;;5132971;27;20187;-21
2021/12/16 03:58:59;;;;;;;4.43;4.03;;;18.30;80.90;;;;;;5133022;27;20562;-18
2021/12/16 04:01:29;;;;;;;4.87;4.47;;;18.30;81.00;;;;;;5133781;27;20219;-24
2021/12/16 04:03:55;;;;;;;6.67;4.23;;;18.30;81.10;;;;;;5115112;28;20234;-23
2021/12/16 04:06:23;;;;;;;4.67;4.27;;;18.30;81.20;;;;;;5132918;27;20205;-24
2021/12/16 04:08:52;;;;;;;4.97;4.00;;;18.90;79.20;;;;;;5117194;27;20193;-20
2021/12/16 04:11:23;;;;;;;4.40;4.00;;;21.70;62.00;;;;;;5119429;28;20211;-19
2021/12/16 04:13:59;;;;;;;4.23;3.83;;;22.40;56.20;;;;;;5137221;27;20496;-20
2021/12/16 04:16:42;;;;;;;4.23;3.83;;;22.50;55.30;;;;;;5135848;27;20603;-22
2021/12/16 04:19:12;;;;;;;4.87;4.37;;;22.60;54.90;;;;;;5135680;27;20622;-22
2021/12/16 04:21:41;;;;;;;4.50;4.10;;;22.90;54.30;;;;;;5116242;28;20283;-23
2021/12/16 04:24:07;;;;;;;4.60;4.10;;;23.10;53.60;;;;;;5118034;27;20201;-21
2021/12/16 04:26:36;;;;;;;4.30;3.90;;;23.20;53.10;;;;;;5118115;28;20204;-24
2021/12/16 04:29:05;;;;;;;4.70;4.23;;;23.30;52.80;;;;;;5136531;27;20204;-22
2021/12/16 04:31:32;;;;;;;4.73;4.23;;;23.40;52.70;;;;;;5135891;28;20221;-24
2021/12/16 04:33:58;;;;;;;4.80;4.27;;;23.60;52.40;;;;;;5135998;27;20280;-23
2021/12/16 04:36:24;;;;;;;4.83;4.40;;;23.80;51.90;;;;;;5136185;28;20202;-23
2021/12/16 04:38:52;;;;;;;4.80;4.40;;;24.00;51.60;;;;;;5134891;28;20482;-21
2021/12/16 04:41:18;;;;;;;4.53;4.13;;;24.00;51.30;;;;;;5134625;28;20563;-23
2021/12/16 04:43:48;;;;;;;4.67;4.17;;;24.00;51.30;;;;;;5117129;28;20234;-24
2021/12/16 04:46:18;;;;;;;4.67;4.17;;;23.80;51.40;;;;;;5135360;28;20169;-23
2021/12/16 04:48:46;;;;;;;4.63;4.23;;;23.90;51.50;;;;;;5136597;28;20189;-23
2021/12/16 04:51:12;;;;;;;5.00;4.50;;;23.90;51.50;;;;;;5136611;28;20188;-24
2021/12/16 04:53:40;;;;;;;4.80;4.30;;;23.70;51.70;;;;;;5136393;28;20269;-24
2021/12/16 04:56:10;;;;;;;5.60;4.80;;;23.50;52.10;;;;;;5118795;28;20651;-23
2021/12/16 04:58:36;;;;;;;5.33;4.70;;;23.30;52.40;;;;;;5135971;28;20201;-25
2021/12/16 05:01:03;;;;;;;4.60;4.20;;;23.00;53.00;;;;;;5136044;28;20670;-22
2021/12/16 05:03:30;;;;;;;4.83;4.30;;;22.90;53.50;;;;;;5134550;28;20292;-23
2021/12/16 05:05:55;;;;;;;5.03;4.53;;;22.80;53.80;;;;;;5134290;28;20197;-21
2021/12/16 05:08:22;;;;;;;5.93;5.10;;;22.60;54.30;;;;;;5117626;28;20196;-23
2021/12/16 05:10:50;;;;;;;5.87;5.27;;;22.50;54.60;;;;;;5136410;28;20531;-24
2021/12/16 05:13:19;;;;;;;5.17;4.67;;;22.40;55.40;;;;;;5117197;28;20244;-24
2021/12/16 05:15:46;;;;;;;5.40;4.87;;;22.20;55.60;;;;;;5135945;28;20391;-24
2021/12/16 05:18:20;;;;;;;5.57;4.93;;;22.00;56.40;;;;;;5117031;28;20197;-21
2021/12/16 05:20:46;;;;;;;5.50;5.00;;;21.70;57.20;;;;;;5135477;27;20258;-25
2021/12/16 05:26:15;;;;;;;5.10;4.60;;;21.40;58.60;;;;;;5133839;28;20619;-22
2021/12/16 05:28:51;;;;;;;5.77;5.17;;;21.20;59.60;;;;;;5114888;28;20591;-21
2021/12/16 05:31:17;;;;;;;5.40;4.90;;;21.00;60.70;;;;;;5115917;28;20220;-24
2021/12/16 05:33:43;;;;;;;5.73;5.10;;;20.90;61.70;;;;;;5134724;28;20197;-21
2021/12/16 05:36:10;;;;;;;6.37;5.00;;;20.70;62.60;;;;;;5133520;28;20191;-22
2021/12/16 05:38:36;;;;;;;5.37;4.87;;;20.70;63.60;;;;;;5134292;28;20196;-25
2021/12/16 05:41:05;;;;;;;6.60;5.27;;;20.50;64.50;;;;;;5135295;28;20219;-24
2021/12/16 05:43:32;;;;;;;5.80;5.20;;;20.40;65.20;;;;;;5134318;28;20194;-20
2021/12/16 05:45:59;;;;;;;6.60;5.10;;;20.30;66.10;;;;;;5132991;28;20193;-24
2021/12/16 05:48:29;;;;;;;5.47;4.97;;;20.20;66.80;;;;;;5132477;28;20576;-21
2021/12/16 05:50:58;;;;;;;6.43;4.93;;;20.20;67.50;;;;;;5132215;28;20226;-21
2021/12/16 05:53:25;;;;;;;6.00;5.37;;;20.10;68.20;;;;;;5132895;28;20242;-23
2021/12/16 05:55:52;;;;;;;5.97;5.03;;;20.00;68.60;;;;;;5133669;28;20195;-23
2021/12/16 05:58:19;;;;;;;5.87;5.30;;;19.90;69.20;;;;;;5114255;28;20218;-22
2021/12/16 06:00:49;;;;;;;5.83;5.23;;;19.90;69.50;;;;;;5113807;28;20222;-23
2021/12/16 06:03:15;;;;;;;5.87;5.27;;;19.90;70.70;;;;;;5132554;28;20216;-22
2021/12/16 06:05:42;;;;;;;4.97;4.50;;;20.00;69.70;;;;;;5114560;28;20303;-22
2021/12/16 06:08:08;;;;;;;5.30;4.80;;;20.10;68.20;;;;;;5130605;28;20419;-23
2021/12/16 06:13:19;;;;;;;6.20;4.80;;;21.00;62.50;;;;;;5130824;28;20204;-23
2021/12/16 06:29:09;;;;;;;6.20;4.67;;;24.20;51.30;;;;;;5130333;28;20347;-26
2021/12/16 06:31:35;;;;;;;5.27;4.77;;;24.30;51.00;;;;;;5108845;28;20199;-22
2021/12/16 06:34:00;;;;;;;5.77;4.73;;;24.10;51.00;;;;;;5128890;28;20201;-23
2021/12/16 06:36:27;;;;;;;7.37;4.97;;;24.10;51.10;;;;;;5127484;28;20578;-24
2021/12/16 06:38:52;;;;;;;5.50;5.00;;;23.90;51.30;;;;;;5111064;28;20558;-25
2021/12/16 06:41:19;;;;;;;5.27;4.77;;;23.70;51.60;;;;;;5129563;28;20207;-22
2021/12/16 06:43:47;;;;;;;5.43;4.70;;;23.50;52.10;;;;;;5128974;28;20474;-22
2021/12/16 06:46:17;;;;;;;9.23;5.17;;;23.30;52.40;;;;;;5111842;28;20196;-24
2021/12/16 06:48:46;;;;;;;5.87;5.27;;;23.10;52.80;;;;;;5112157;28;20202;-26
2021/12/16 06:51:19;;;;;;;5.73;4.97;;;22.80;53.30;;;;;;5130382;28;20615;-24
2021/12/16 06:54:01;;;;;;;7.93;5.40;;;22.60;53.80;;;;;;5129394;28;20256;-24
2021/12/16 06:56:35;;;;;;;8.97;6.40;;;22.30;54.80;;;;;;5128592;28;20217;-22
2021/12/16 06:59:06;;;;;;;6.17;5.30;;;22.10;55.50;;;;;;5129330;28;20176;-22
2021/12/16 07:04:07;;;;;;;8.37;5.80;;;21.80;56.90;;;;;;5129564;28;20208;-23
2021/12/16 07:06:34;;;;;;;7.20;6.10;;;21.50;57.80;;;;;;5129058;28;20479;-24
2021/12/16 07:09:13;;;;;;;7.50;6.30;;;21.30;58.80;;;;;;5129573;28;20220;-22
2021/12/16 07:11:41;;;;;;;7.13;5.90;;;21.00;60.00;;;;;;5129246;28;20252;-28
2021/12/16 07:14:14;;;;;;;7.57;5.43;;;20.80;62.10;;;;;;5110755;28;20202;-21
2021/12/16 07:16:41;;;;;;;8.07;5.90;;;20.70;63.50;;;;;;5111136;28;20209;-21
2021/12/16 07:19:06;;;;;;;7.90;6.03;;;20.50;65.10;;;;;;5126789;28;20193;-22
2021/12/16 07:21:37;;;;;;;6.93;5.83;;;20.40;66.30;;;;;;5128082;28;20205;-22
2021/12/16 07:24:05;;;;;;;6.90;6.07;;;20.20;67.40;;;;;;5127966;28;20189;-22
2021/12/16 07:26:31;;;;;;;8.60;6.03;;;20.10;68.40;;;;;;5129258;28;20209;-24
2021/12/16 07:28:57;;;;;;;8.57;6.30;;;20.10;69.50;;;;;;5129247;28;20223;-22
2021/12/16 07:31:22;;;;;;;7.30;6.40;;;20.10;70.20;;;;;;5127906;28;20358;-23
2021/12/16 07:33:48;;;;;;;7.50;6.10;;;20.20;69.40;;;;;;5129555;28;20208;-23
2021/12/16 07:36:18;;;;;;;8.77;6.13;;;20.40;68.60;;;;;;5110508;28;20410;-24
2021/12/16 07:38:47;;;;;;;7.50;6.30;;;20.60;67.50;;;;;;5110342;28;20205;-23
2021/12/16 07:41:16;;;;;;;8.13;6.53;;;20.90;65.60;;;;;;5108199;28;20320;-24
2021/12/16 07:43:56;;;;;;;8.30;6.47;;;21.30;62.80;;;;;;5129534;27;20315;-22
2021/12/16 07:46:22;;;;;;;9.03;6.43;;;21.70;59.80;;;;;;5114698;28;20185;-24
2021/12/16 07:48:48;;;;;;;10.43;6.80;;;22.30;57.70;;;;;;5132340;28;20199;-23
2021/12/16 07:51:15;;;;;;;8.07;6.57;;;22.90;55.90;;;;;;5132079;28;20284;-21
2021/12/16 07:53:41;;;;;;;8.57;6.80;;;23.30;54.50;;;;;;5115507;28;20203;-23
2021/12/16 07:56:08;;;;;;;8.27;6.73;;;23.60;53.50;;;;;;5132429;28;20173;-25
2021/12/16 07:58:35;;;;;;;8.17;6.93;;;23.80;52.90;;;;;;5133123;28;20209;-21
2021/12/16 08:01:01;;;;;;;8.27;6.87;;;23.70;52.60;;;;;;5131253;28;20209;-27
2021/12/16 08:03:34;;;;;;;7.30;6.50;;;23.60;52.60;;;;;;5112652;28;20345;-23
2021/12/16 08:06:01;;;;;;;9.17;7.03;;;23.50;52.90;;;;;;5131102;28;20183;-20
2021/12/16 08:08:26;;;;;;;8.70;7.37;;;23.30;53.20;;;;;;5113267;28;20269;-22
2021/12/16 08:10:53;;;;;;;8.53;7.27;;;23.00;53.80;;;;;;5131672;28;20201;-19
2021/12/16 08:13:19;;;;;;;8.50;6.50;;;22.90;54.40;;;;;;5132424;28;20204;-24
2021/12/16 08:15:45;;;;;;;9.63;7.47;;;22.60;55.00;;;;;;5132326;28;20682;-22
2021/12/16 08:18:11;;;;;;;8.50;6.73;;;22.40;55.70;;;;;;5113146;28;20487;-22
2021/12/16 08:20:39;;;;;;;8.83;7.57;;;22.10;56.50;;;;;;5132076;28;20491;-24
2021/12/16 08:23:05;;;;;;;9.27;7.40;;;21.90;57.70;;;;;;5131504;28;20566;-23
2021/12/16 08:25:31;;;;;;;9.33;7.53;;;21.80;58.10;;;;;;5112157;28;20177;-21
2021/12/16 08:27:58;;;;;;;9.67;7.77;;;21.60;58.90;;;;;;5129769;28;20321;-24
2021/12/16 08:30:27;;;;;;;9.07;6.97;;;21.40;59.60;;;;;;5130417;28;20195;-21
2021/12/16 08:32:54;;;;;;;9.23;7.70;;;21.20;60.70;;;;;;5114119;28;20610;-25
2021/12/16 08:35:20;;;;;;;9.73;8.10;;;21.10;62.40;;;;;;5114111;28;20601;-22
2021/12/16 08:37:46;;;;;;;9.77;7.80;;;20.90;63.20;;;;;;5131502;28;20372;-21
2021/12/16 08:40:17;;;;;;;8.70;7.10;;;20.80;64.60;;;;;;5113311;28;20336;-23
2021/12/16 08:42:44;;;;;;;9.30;7.57;;;20.70;65.70;;;;;;5112976;28;20297;-21
2021/12/16 08:45:12;;;;;;;9.33;8.00;;;20.50;66.50;;;;;;5113748;28;20222;-26
2021/12/16 08:47:38;;;;;;;9.40;7.77;;;20.40;67.80;;;;;;5129702;28;20199;-22
2021/12/16 08:50:07;;;;;;;8.90;7.73;;;20.30;68.80;;;;;;5131476;28;20248;-24
2021/12/16 08:52:33;;;;;;;10.10;7.50;;;20.20;69.60;;;;;;5111609;28;20628;-23
2021/12/16 08:55:00;;;;;;;10.67;8.23;;;20.10;70.40;;;;;;5131678;27;20188;-23
2021/12/16 08:57:27;;;;;;;9.10;8.20;;;20.00;71.40;;;;;;5131895;28;20200;-23
2021/12/16 08:59:53;;;;;;;14.37;8.30;;;19.90;72.10;;;;;;5113338;28;20195;-22
2021/12/16 09:02:20;;;;;;;10.83;7.83;;;19.80;72.70;;;;;;5131277;28;20235;-22
2021/12/16 09:04:46;;;;;;;12.37;8.67;;;19.80;73.20;;;;;;5113241;28;20259;-22
2021/12/16 09:07:12;;;;;;;9.80;7.93;;;19.70;73.80;;;;;;5112544;28;20288;-22
2021/12/16 09:09:40;;;;;;;10.70;8.37;;;19.70;74.50;;;;;;5129777;28;20176;-23
2021/12/16 09:12:36;;;;;;;13.00;8.43;;;19.80;74.30;;;;;;5112327;28;20339;-22
2021/12/16 09:15:00;;;;;;;10.60;8.57;;;20.00;73.20;;;;;;5129706;28;20223;-23
2021/12/16 09:17:26;;;;;;;10.70;8.20;;;20.20;71.90;;;;;;5130581;28;20199;-21
2021/12/16 09:19:54;;;;;;;11.40;8.07;;;20.70;69.00;;;;;;5130891;28;20192;-21
2021/12/16 09:22:22;;;;;;;10.43;8.27;;;21.30;64.60;;;;;;5131568;28;20285;-22
2021/12/16 09:24:48;;;;;;;11.53;8.40;;;21.90;59.80;;;;;;5131841;28;20462;-21
2021/12/16 09:27:15;;;;;;;11.07;8.57;;;22.60;57.40;;;;;;5112392;28;20200;-23
2021/12/16 09:29:42;;;;;;;10.30;8.47;;;23.10;55.70;;;;;;5131103;28;20197;-23
2021/12/16 09:32:08;;;;;;;12.37;8.67;;;23.50;54.30;;;;;;5113556;28;20347;-22
2021/12/16 09:34:36;;;;;;;11.60;8.50;;;23.80;53.50;;;;;;5130722;28;20205;-22
2021/12/16 09:37:03;;;;;;;11.17;9.17;;;23.70;53.10;;;;;;5112930;28;20193;-24
2021/12/16 09:39:29;;;;;;;12.57;8.70;;;23.70;53.00;;;;;;5131424;28;20186;-22
2021/12/16 09:41:57;;;;;;;11.43;9.23;;;23.70;53.00;;;;;;5131546;28;20305;-23
2021/12/16 09:44:24;;;;;;;12.43;9.50;;;23.60;53.00;;;;;;5112355;28;20374;-20
2021/12/16 09:46:54;;;;;;;10.47;9.17;;;23.40;53.50;;;;;;5131095;28;20189;-21
2021/12/16 09:49:21;;;;;;;11.63;9.43;;;23.20;53.80;;;;;;5112066;28;20254;-24
2021/12/16 09:51:50;;;;;;;14.00;9.33;;;23.10;54.40;;;;;;5112398;28;20816;-21
2021/12/16 09:54:19;;;;;;;10.80;9.63;;;22.80;55.00;;;;;;5112443;28;20225;-27
2021/12/16 09:56:47;;;;;;;11.47;8.93;;;22.60;55.70;;;;;;5131745;28;20237;-23
2021/12/16 09:59:15;;;;;;;11.70;9.50;;;22.50;56.30;;;;;;5112234;28;20254;-22
2021/12/16 10:01:43;;;;;;;12.23;9.63;;;22.20;56.90;;;;;;5129720;28;20636;-23
2021/12/16 10:04:13;;;;;;;11.07;9.23;;;22.10;57.60;;;;;;5130172;28;20448;-24
2021/12/16 10:06:40;;;;;;;12.87;9.90;;;21.90;58.40;;;;;;5128477;27;20270;-22
2021/12/16 10:09:08;;;;;;;11.27;9.43;;;21.70;59.10;;;;;;5130827;28;20199;-22
2021/12/16 10:11:35;;;;;;;12.87;10.27;;;21.50;59.80;;;;;;5129928;28;20459;-22
2021/12/16 10:14:16;;;;;;;12.73;9.60;;;21.30;61.10;;;;;;5130198;28;20181;-22
2021/12/16 10:19:31;;;;;;;14.87;10.33;;;21.00;64.10;;;;;;5129594;28;20196;-25
2021/12/16 10:22:20;;;;;;;13.93;10.17;;;20.80;65.30;;;;;;5130705;28;20216;-24
2021/12/16 10:24:47;;;;;;;14.03;10.43;;;20.60;66.90;;;;;;5113821;28;20208;-21
2021/12/16 10:27:19;;;;;;;16.13;10.43;;;20.50;68.00;;;;;;5112245;28;20190;-24
2021/12/16 10:29:59;;;;;;;13.90;10.73;;;20.40;69.00;;;;;;5111675;28;20196;-23
2021/12/16 10:32:36;;;;;;;13.20;10.00;;;20.30;69.90;;;;;;5111542;28;20205;-23
2021/12/16 10:35:07;;;;;;;17.30;11.27;;;20.20;70.80;;;;;;5111107;28;20199;-25
2021/12/16 10:37:36;;;;;;;15.97;10.73;;;20.10;71.30;;;;;;5111540;28;20666;-22
2021/12/16 10:40:22;;;;;;;14.17;10.43;;;20.10;72.00;;;;;;5111848;28;20227;-23
2021/12/16 10:42:47;;;;;;;12.93;10.23;;;20.00;72.70;;;;;;5129921;28;20237;-20
2021/12/16 10:45:37;;;;;;;14.93;10.83;;;19.90;73.00;;;;;;5128718;28;20190;-22
2021/12/16 10:48:30;;;;;;;15.20;10.90;;;19.90;73.50;;;;;;5129625;28;20354;-21
2021/12/16 10:51:04;;;;;;;14.00;10.77;;;20.00;72.90;;;;;;5111870;28;20183;-21
2021/12/16 10:53:53;;;;;;;13.93;10.57;;;20.20;71.80;;;;;;5111402;28;20276;-21
2021/12/16 10:56:24;;;;;;;15.93;11.53;;;20.60;69.90;;;;;;5110869;28;20189;-20
2021/12/16 10:58:58;;;;;;;16.00;11.17;;;20.80;67.40;;;;;;5128645;28;20356;-22
2021/12/16 11:01:45;;;;;;;13.70;10.97;;;21.30;64.20;;;;;;5129023;28;20292;-22
2021/12/16 11:04:30;;;;;;;16.53;11.70;;;21.80;60.60;;;;;;5127672;28;20205;-22
2021/12/16 11:07:10;;;;;;;14.80;11.37;;;22.30;58.40;;;;;;5127903;28;20276;-22
2021/12/16 11:09:47;;;;;;;13.70;11.13;;;22.60;57.10;;;;;;5110589;28;20365;-21
2021/12/16 11:12:31;;;;;;;17.90;12.37;;;22.90;55.90;;;;;;5128437;28;20455;-20
2021/12/16 11:14:59;;;;;;;13.93;11.13;;;23.10;55.10;;;;;;5129232;28;20352;-22
2021/12/16 11:17:29;;;;;;;15.10;12.00;;;23.30;54.30;;;;;;5112654;28;20197;-21
2021/12/16 11:20:11;;;;;;;14.47;11.57;;;23.30;54.10;;;;;;5132679;28;20474;-20
2021/12/16 11:22:38;;;;;;;16.00;11.70;;;23.20;54.30;;;;;;5114676;28;20480;-22
2021/12/16 11:25:32;;;;;;;15.17;11.47;;;23.10;54.50;;;;;;5133115;28;20189;-21
2021/12/16 11:28:25;;;;;;;14.40;11.67;;;22.90;55.00;;;;;;5132460;28;20268;-22
2021/12/16 11:31:03;;;;;;;14.67;11.67;;;22.70;55.50;;;;;;5132754;28;20196;-21
2021/12/16 11:33:39;;;;;;;14.77;11.30;;;22.50;56.20;;;;;;5132990;28;20192;-23
2021/12/16 11:36:26;;;;;;;15.43;11.90;;;22.20;56.90;;;;;;5131932;28;20189;-20
2021/12/16 11:39:05;;;;;;;16.40;11.93;;;22.00;57.90;;;;;;5114119;28;20448;-22
2021/12/16 11:41:40;;;;;;;15.27;11.27;;;21.80;58.50;;;;;;5132029;28;20616;-22
2021/12/16 11:44:05;;;;;;;16.50;12.20;;;21.50;59.50;;;;;;5112417;28;20188;-23
2021/12/16 11:46:39;;;;;;;15.47;11.70;;;21.40;60.70;;;;;;5112620;28;20659;-23
2021/12/16 11:49:13;;;;;;;14.40;11.77;;;21.20;62.30;;;;;;5113262;28;20208;-22
2021/12/16 11:51:41;;;;;;;15.37;11.33;;;21.00;63.40;;;;;;5131298;28;20320;-21
2021/12/16 11:54:26;;;;;;;16.33;11.77;;;20.90;64.60;;;;;;5131968;28;20535;-26
2021/12/16 11:57:27;;;;;;;16.67;11.67;;;20.70;65.90;;;;;;5113773;28;20256;-20
2021/12/16 12:00:08;;;;;;;14.43;11.40;;;20.60;67.20;;;;;;5130548;28;20227;-22
2021/12/16 12:02:39;;;;;;;14.87;12.00;;;20.50;68.50;;;;;;5131943;28;20234;-22
2021/12/16 12:05:31;;;;;;;15.53;11.77;;;20.40;69.50;;;;;;5130800;28;20635;-23
2021/12/16 12:08:12;;;;;;;14.90;11.50;;;20.30;70.40;;;;;;5130218;28;20186;-23
2021/12/16 12:11:21;;;;;;;15.43;11.67;;;20.20;71.20;;;;;;5130431;28;20697;-22
2021/12/16 12:13:54;;;;;;;16.23;12.20;;;20.10;72.10;;;;;;5027280;28;20228;-21
2021/12/16 12:16:34;;;;;;;14.63;11.27;;;20.10;72.60;;;;;;5023465;28;20534;-22
2021/12/16 12:19:13;;;;;;;15.40;11.93;;;20.00;73.20;;;;;;5076234;28;20254;-22
2021/12/16 12:21:58;;;;;;;15.03;12.00;;;19.90;73.80;;;;;;5130671;28;20218;-23
2021/12/16 12:24:32;;;;;;;16.73;12.17;;;19.90;74.30;;;;;;5129026;28;20197;-21
2021/12/16 12:27:13;;;;;;;15.27;11.80;;;19.80;74.70;;;;;;5129599;28;20186;-23
2021/12/16 12:29:45;;;;;;;14.63;11.33;;;19.80;75.30;;;;;;5129285;27;20185;-22
2021/12/16 12:32:12;;;;;;;15.00;11.43;;;20.00;74.90;;;;;;5111342;28;20172;-24
2021/12/16 12:34:47;;;;;;;15.67;11.53;;;20.30;72.50;;;;;;5111402;28;20199;-24
2021/12/16 12:37:18;;;;;;;13.73;10.73;;;20.70;70.60;;;;;;5131218;28;20198;-24
2021/12/16 12:39:48;;;;;;;16.17;11.10;;;21.20;66.90;;;;;;5130667;28;20185;-22
2021/12/16 12:42:15;;;;;;;15.03;11.33;;;21.80;62.30;;;;;;5111473;28;20209;-23
2021/12/16 12:44:41;;;;;;;13.53;10.67;;;22.50;58.80;;;;;;5111111;28;20356;-23
2021/12/16 12:47:13;;;;;;;13.03;10.80;;;23.00;56.70;;;;;;5111831;28;20236;-23
2021/12/16 12:49:39;;;;;;;16.50;11.50;;;23.50;55.00;;;;;;5112738;28;20221;-23
2021/12/16 12:52:11;;;;;;;14.90;11.40;;;23.90;53.70;;;;;;5129387;28;20419;-23
2021/12/16 12:54:43;;;;;;;14.53;11.27;;;24.10;53.00;;;;;;5111712;28;20170;-22
2021/12/16 12:57:20;;;;;;;14.30;11.27;;;24.00;52.80;;;;;;5110959;28;20194;-19
2021/12/16 12:59:46;;;;;;;15.77;11.40;;;24.00;53.00;;;;;;5111340;28;20220;-23
2021/12/16 13:02:27;;;;;;;13.97;11.30;;;23.70;53.10;;;;;;5130082;28;20251;-21
2021/12/16 13:05:10;;;;;;;15.20;11.33;;;23.40;53.70;;;;;;5127977;28;20605;-22
2021/12/16 13:07:45;;;;;;;15.60;11.80;;;23.20;54.30;;;;;;5120311;27;20200;-23
2021/12/16 13:10:17;;;;;;;14.73;11.30;;;23.00;55.00;;;;;;5108450;28;20196;-22
2021/12/16 13:13:05;;;;;;;15.10;12.00;;;22.70;55.80;;;;;;5090875;28;20236;-20
2021/12/16 13:15:48;;;;;;;16.00;11.83;;;22.50;56.60;;;;;;5109120;28;20225;-23
2021/12/16 13:32:20;;;;;;;14.37;11.00;;;21.30;62.90;;;;;;5109642;28;20528;-22
2021/12/16 13:35:01;;;;;;;14.60;11.03;;;21.20;64.10;;;;;;5092419;28;20201;-22
2021/12/16 13:37:36;;;;;;;16.07;11.73;;;21.00;65.60;;;;;;5090059;28;20195;-23
2021/12/16 13:40:13;;;;;;;14.70;11.00;;;20.80;67.00;;;;;;5108197;28;20212;-22
2021/12/16 13:43:18;;;;;;;14.37;11.10;;;20.70;68.40;;;;;;5132209;28;20212;-21
2021/12/16 13:46:07;;;;;;;15.70;11.30;;;20.50;69.80;;;;;;5068276;28;20204;-23
2021/12/16 14:03:42;;;;;;;15.10;11.63;;;20.10;74.10;;;;;;5129809;27;20350;-21
2021/12/16 14:06:16;;;;;;;17.23;11.33;;;20.00;74.50;;;;;;5127738;27;20192;-24
2021/12/16 14:08:52;;;;;;;16.00;11.63;;;20.00;75.00;;;;;;5127732;27;20214;-23
2021/12/16 14:14:41;;;;;;;13.97;10.40;;;20.00;75.60;;;;;;5125858;27;20222;-19
2021/12/16 14:25:38;;;;;;;16.13;10.90;;;21.10;68.80;;;;;;5127472;27;20261;-25
2021/12/16 14:31:16;;;;;;;15.80;11.10;;;21.70;65.00;;;;;;5127316;27;20285;-21
2021/12/16 14:42:16;;;;;;;16.60;10.63;;;22.70;58.30;;;;;;5128033;27;20209;-21
2021/12/16 14:50:38;;;;;;;15.00;11.23;;;22.40;59.00;;;;;;5093716;27;20303;-23
2021/12/16 14:53:19;;;;;;;15.90;11.87;;;22.20;59.50;;;;;;5127094;27;20227;-23
2021/12/16 14:55:46;;;;;;;18.67;11.33;;;21.90;60.60;;;;;;5109655;28;20192;-22
2021/12/16 14:58:13;;;;;;;16.60;12.00;;;21.80;62.10;;;;;;5127108;27;20306;-24
2021/12/16 15:00:57;;;;;;;16.70;12.37;;;21.60;63.10;;;;;;5125845;27;20347;-22
2021/12/16 15:03:35;;;;;;;17.53;12.40;;;21.50;64.30;;;;;;5104915;28;20486;-24
2021/12/16 15:06:07;;;;;;;15.90;11.93;;;21.30;65.60;;;;;;5086746;28;20240;-22
2021/12/16 15:09:08;;;;;;;15.43;11.90;;;21.10;66.70;;;;;;5105020;28;20523;-22
2021/12/16 15:14:37;;;;;;;16.37;12.10;;;20.80;69.40;;;;;;5106506;28;20174;-21
2021/12/16 15:17:16;;;;;;;17.60;12.97;;;20.60;70.90;;;;;;5089754;28;20228;-23
2021/12/16 15:39:51;;;;;;;20.70;12.80;;;19.90;76.30;;;;;;5106437;28;20488;-22
2021/12/16 15:45:12;;;;;;;17.63;12.80;;;19.90;77.10;;;;;;5106072;28;20228;-22
2021/12/16 15:47:48;;;;;;;15.60;11.43;;;19.90;77.60;;;;;;5105209;28;20361;-23
2021/12/16 15:50:18;;;;;;;16.50;11.50;;;19.90;77.20;;;;;;5106131;28;20487;-22
2021/12/16 15:52:47;;;;;;;15.17;11.03;;;20.10;76.00;;;;;;5087637;28;20259;-22
2021/12/16 15:55:29;;;;;;;17.33;12.20;;;20.30;74.90;;;;;;5106450;28;20197;-22
2021/12/16 15:58:05;;;;;;;16.37;11.90;;;20.60;73.10;;;;;;5108052;28;20215;-24
2021/12/16 16:00:32;;;;;;;18.80;11.47;;;20.90;70.70;;;;;;5090162;28;20593;-21
2021/12/16 16:03:00;;;;;;;17.17;11.57;;;21.20;68.40;;;;;;5106434;28;20229;-23
2021/12/16 16:05:50;;;;;;;17.10;11.73;;;21.50;65.70;;;;;;5109386;28;20208;-24
2021/12/16 16:08:18;;;;;;;15.83;12.23;;;21.90;62.40;;;;;;5110498;28;20178;-21
2021/12/16 16:10:49;;;;;;;18.57;12.43;;;22.30;59.80;;;;;;5091385;28;20340;-22
2021/12/16 16:13:24;;;;;;;16.33;11.77;;;22.50;58.90;;;;;;5110493;28;20606;-26
2021/12/16 16:15:54;;;;;;;17.07;11.73;;;22.60;58.40;;;;;;5111436;28;20280;-21
2021/12/16 16:20:54;;;;;;;17.93;12.00;;;22.60;58.00;;;;;;5110597;28;20237;-24
2021/12/16 16:23:21;;;;;;;19.83;11.90;;;22.40;58.10;;;;;;5091373;28;20680;-21
2021/12/16 16:25:47;;;;;;;18.07;12.30;;;22.30;58.50;;;;;;5091165;28;20194;-22
2021/12/16 16:28:15;;;;;;;18.10;12.30;;;22.20;59.10;;;;;;5109102;28;20212;-24
2021/12/16 16:30:42;;;;;;;16.43;12.43;;;22.00;59.70;;;;;;5108410;28;20170;-21
2021/12/16 16:33:17;;;;;;;17.47;12.77;;;21.90;60.50;;;;;;5110894;28;20201;-24
2021/12/16 16:35:48;;;;;;;16.33;11.67;;;21.70;62.00;;;;;;5092328;28;20435;-19
2021/12/16 16:38:22;;;;;;;17.87;12.57;;;21.50;62.90;;;;;;5109637;28;20271;-22
2021/12/16 16:40:52;;;;;;;16.97;11.97;;;21.30;64.40;;;;;;5109447;28;20602;-22
2021/12/16 16:43:23;;;;;;;18.20;12.67;;;21.20;66.00;;;;;;5108315;28;20201;-22
2021/12/16 16:45:54;;;;;;;17.33;12.47;;;21.00;67.30;;;;;;5109294;28;20194;-21
2021/12/16 16:49:06;;;;;;;17.50;12.20;;;20.80;68.70;;;;;;5108117;28;20197;-22
2021/12/16 16:51:25;;;;;;;17.77;12.30;;;20.60;70.00;;;;;;5096029;28;20198;-21
2021/12/16 16:54:01;;;;;;;15.53;11.47;;;20.50;71.60;;;;;;5110108;28;20193;-26
2021/12/16 16:56:43;;;;;;;17.10;12.50;;;20.40;72.70;;;;;;5090515;28;20193;-22